Gibraltar, Michigan
Current Conditions -  °F | °C
As of 4:54 PM on Monday 20 Oct 2014 (Local Time) from KONZ Reporting Station
Overcast Overcast  
Wind Chill: 55°   Ceiling: 3200
Heat Index: 55°   Visibility: 10mi
Dew Point: 50°   Wind: 5mph
Humidity: 82%   Direction: 230°SW
Pressure: 29.79"   Gusts: NA
Location:  42.0725°N, 83.2169°W
Report Text: KONZ 202054Z AUTO 23004KT 10SM BKN032 OVC050 13/10 A2979 RMK AO2
Loading
Personal Weather Stations






























Interactive Weather Map New forecast layout! Learn more

10-Day Weather Forecast

Advertisements
Track Severe Weather on mobile